sensor_id;sensor_type;location;lat;lon;timestamp;pressure;altitude;pressure_sealevel;temperature;humidity
11349;BME280;5729;43.570;27.826;2023-04-15T00:01:08;98463.41;;;13.50;100.00
11349;BME280;5729;43.570;27.826;2023-04-15T00:03:34;98469.22;;;13.41;100.00
11349;BME280;5729;43.570;27.826;2023-04-15T00:06:00;98461.09;;;13.41;100.00
11349;BME280;5729;43.570;27.826;2023-04-15T00:08:26;98458.78;;;13.32;100.00
11349;BME280;5729;43.570;27.826;2023-04-15T00:10:52;98454.16;;;13.29;100.00
11349;BME280;5729;43.570;27.826;2023-04-15T00:13:18;98458.44;;;13.16;100.00
11349;BME280;5729;43.570;27.826;2023-04-15T00:15:44;98456.47;;;13.09;100.00
11349;BME280;5729;43.570;27.826;2023-04-15T00:18:09;98463.41;;;13.10;100.00
11349;BME280;5729;43.570;27.826;2023-04-15T00:20:35;98466.53;;;13.09;100.00
11349;BME280;5729;43.570;27.826;2023-04-15T00:23:01;98465.75;;;13.01;100.00
11349;BME280;5729;43.570;27.826;2023-04-15T00:25:28;98469.22;;;12.98;100.00
11349;BME280;5729;43.570;27.826;2023-04-15T00:27:53;98465.75;;;12.94;100.00
11349;BME280;5729;43.570;27.826;2023-04-15T00:30:19;98471.16;;;12.87;100.00
11349;BME280;5729;43.570;27.826;2023-04-15T00:32:44;98473.84;;;12.87;100.00
11349;BME280;5729;43.570;27.826;2023-04-15T00:35:11;98474.25;;;12.86;100.00
11349;BME280;5729;43.570;27.826;2023-04-15T00:37:36;98486.59;;;12.80;100.00
11349;BME280;5729;43.570;27.826;2023-04-15T00:40:02;98482.34;;;12.68;100.00
11349;BME280;5729;43.570;27.826;2023-04-15T00:42:30;98490.44;;;12.57;100.00
11349;BME280;5729;43.570;27.826;2023-04-15T00:44:56;98489.25;;;12.48;100.00
11349;BME280;5729;43.570;27.826;2023-04-15T00:47:22;98490.78;;;12.45;100.00
11349;BME280;5729;43.570;27.826;2023-04-15T00:49:47;98485.00;;;12.40;100.00
11349;BME280;5729;43.570;27.826;2023-04-15T00:52:13;98489.25;;;12.44;100.00
11349;BME280;5729;43.570;27.826;2023-04-15T00:54:38;98492.31;;;12.43;100.00
11349;BME280;5729;43.570;27.826;2023-04-15T00:57:05;98489.22;;;12.30;100.00
11349;BME280;5729;43.570;27.826;2023-04-15T00:59:32;98499.66;;;12.39;100.00
11349;BME280;5729;43.570;27.826;2023-04-15T01:01:58;98496.16;;;12.34;100.00
11349;BME280;5729;43.570;27.826;2023-04-15T01:04:24;98507.78;;;12.46;100.00
11349;BME280;5729;43.570;27.826;2023-04-15T01:06:49;98504.28;;;12.45;100.00
11349;BME280;5729;43.570;27.826;2023-04-15T01:09:15;98501.22;;;12.47;100.00
11349;BME280;5729;43.570;27.826;2023-04-15T01:11:41;98497.34;;;12.44;100.00
11349;BME280;5729;43.570;27.826;2023-04-15T01:14:08;98496.97;;;12.46;100.00
11349;BME280;5729;43.570;27.826;2023-04-15T01:16:35;98498.09;;;12.38;100.00
11349;BME280;5729;43.570;27.826;2023-04-15T01:19:05;98514.31;;;12.38;100.00
11349;BME280;5729;43.570;27.826;2023-04-15T01:21:36;98518.19;;;12.44;100.00
11349;BME280;5729;43.570;27.826;2023-04-15T01:24:07;98517.06;;;12.48;100.00
11349;BME280;5729;43.570;27.826;2023-04-15T01:26:34;98527.09;;;12.48;100.00
11349;BME280;5729;43.570;27.826;2023-04-15T01:29:00;98520.53;;;12.56;100.00
11349;BME280;5729;43.570;27.826;2023-04-15T01:31:25;98508.59;;;12.60;100.00
11349;BME280;5729;43.570;27.826;2023-04-15T01:33:51;98508.22;;;12.69;100.00
11349;BME280;5729;43.570;27.826;2023-04-15T01:36:17;98505.50;;;12.69;100.00
11349;BME280;5729;43.570;27.826;2023-04-15T01:38:42;98490.47;;;12.71;100.00
11349;BME280;5729;43.570;27.826;2023-04-15T01:41:08;98488.53;;;12.72;100.00
11349;BME280;5729;43.570;27.826;2023-04-15T01:43:34;98484.28;;;12.75;100.00
11349;BME280;5729;43.570;27.826;2023-04-15T01:46:01;98481.19;;;12.72;100.00
11349;BME280;5729;43.570;27.826;2023-04-15T01:48:27;98490.06;;;12.66;100.00
11349;BME280;5729;43.570;27.826;2023-04-15T01:50:53;98488.13;;;12.66;100.00
11349;BME280;5729;43.570;27.826;2023-04-15T01:53:19;98481.16;;;12.65;100.00
11349;BME280;5729;43.570;27.826;2023-04-15T01:55:45;98473.06;;;12.69;100.00
11349;BME280;5729;43.570;27.826;2023-04-15T01:58:11;98468.44;;;12.62;100.00
11349;BME280;5729;43.570;27.826;2023-04-15T02:00:36;98490.06;;;12.66;100.00
11349;BME280;5729;43.570;27.826;2023-04-15T02:03:02;98483.09;;;12.65;100.00
11349;BME280;5729;43.570;27.826;2023-04-15T02:05:27;98491.22;;;12.72;100.00
11349;BME280;5729;43.570;27.826;2023-04-15T02:07:53;98480.81;;;12.70;100.00
11349;BME280;5729;43.570;27.826;2023-04-15T02:10:18;98470.78;;;12.75;100.00
11349;BME280;5729;43.570;27.826;2023-04-15T02:12:44;98466.53;;;12.73;100.00
11349;BME280;5729;43.570;27.826;2023-04-15T02:15:09;98491.25;;;12.90;100.00
11349;BME280;5729;43.570;27.826;2023-04-15T02:17:36;98479.66;;;12.96;100.00
11349;BME280;5729;43.570;27.826;2023-04-15T02:20:02;98476.97;;;13.03;100.00
11349;BME280;5729;43.570;27.826;2023-04-15T02:22:30;98486.22;;;13.02;100.00
11349;BME280;5729;43.570;27.826;2023-04-15T02:24:55;98488.91;;;13.09;100.00
11349;BME280;5729;43.570;27.826;2023-04-15T02:27:21;98480.81;;;13.06;100.00
11349;BME280;5729;43.570;27.826;2023-04-15T02:29:47;98485.44;;;13.13;100.00
11349;BME280;5729;43.570;27.826;2023-04-15T02:32:12;98479.66;;;13.10;100.00
11349;BME280;5729;43.570;27.826;2023-04-15T02:34:39;98488.53;;;13.11;100.00
11349;BME280;5729;43.570;27.826;2023-04-15T02:37:07;98484.69;;;13.08;100.00
11349;BME280;5729;43.570;27.826;2023-04-15T02:39:33;98478.91;;;13.06;100.00
11349;BME280;5729;43.570;27.826;2023-04-15T02:41:58;98481.22;;;13.04;100.00
11349;BME280;5729;43.570;27.826;2023-04-15T02:44:25;98476.94;;;13.00;100.00
11349;BME280;5729;43.570;27.826;2023-04-15T02:46:52;98481.19;;;13.01;100.00
11349;BME280;5729;43.570;27.826;2023-04-15T02:49:19;98470.38;;;13.01;100.00
11349;BME280;5729;43.570;27.826;2023-04-15T02:51:45;98473.47;;;13.03;100.00
11349;BME280;5729;43.570;27.826;2023-04-15T02:54:23;98481.19;;;13.01;100.00
11349;BME280;5729;43.570;27.826;2023-04-15T02:56:48;98479.66;;;13.00;100.00
11349;BME280;5729;43.570;27.826;2023-04-15T02:59:15;98467.31;;;12.95;100.00
11349;BME280;5729;43.570;27.826;2023-04-15T03:01:41;98483.91;;;12.97;100.00
11349;BME280;5729;43.570;27.826;2023-04-15T03:04:06;98481.97;;;12.91;100.00
11349;BME280;5729;43.570;27.826;2023-04-15T03:06:33;98474.63;;;12.84;100.00
11349;BME280;5729;43.570;27.826;2023-04-15T03:08:59;98477.34;;;12.84;100.00
11349;BME280;5729;43.570;27.826;2023-04-15T03:11:25;98470.00;;;12.81;100.00
11349;BME280;5729;43.570;27.826;2023-04-15T03:13:53;98472.31;;;12.72;100.00
11349;BME280;5729;43.570;27.826;2023-04-15T03:16:19;98472.31;;;12.72;100.00
11349;BME280;5729;43.570;27.826;2023-04-15T03:18:45;98482.72;;;12.70;100.00
11349;BME280;5729;43.570;27.826;2023-04-15T03:21:10;98477.31;;;12.66;100.00
11349;BME280;5729;43.570;27.826;2023-04-15T03:23:36;98478.88;;;12.71;100.00
11349;BME280;5729;43.570;27.826;2023-04-15T03:26:01;98480.81;;;12.70;100.00
11349;BME280;5729;43.570;27.826;2023-04-15T03:28:27;98477.72;;;12.72;100.00
11349;BME280;5729;43.570;27.826;2023-04-15T03:30:53;98486.22;;;12.81;100.00
11349;BME280;5729;43.570;27.826;2023-04-15T03:33:19;98486.59;;;13.01;100.00
11349;BME280;5729;43.570;27.826;2023-04-15T03:35:45;98478.09;;;12.99;100.00
11349;BME280;5729;43.570;27.826;2023-04-15T03:38:10;98487.81;;;13.14;100.00
11349;BME280;5729;43.570;27.826;2023-04-15T03:40:36;98491.28;;;13.22;100.00
11349;BME280;5729;43.570;27.826;2023-04-15T03:43:01;98487.41;;;13.30;100.00
11349;BME280;5729;43.570;27.826;2023-04-15T03:45:27;98491.28;;;13.29;100.00
11349;BME280;5729;43.570;27.826;2023-04-15T03:47:52;98493.97;;;13.36;100.00
11349;BME280;5729;43.570;27.826;2023-04-15T03:50:18;98490.88;;;13.41;100.00
11349;BME280;5729;43.570;27.826;2023-04-15T03:52:43;98483.91;;;13.47;100.00
11349;BME280;5729;43.570;27.826;2023-04-15T03:55:09;98489.31;;;13.54;100.00
11349;BME280;5729;43.570;27.826;2023-04-15T03:57:35;98485.81;;;13.64;100.00
11349;BME280;5729;43.570;27.826;2023-04-15T04:00:04;98469.22;;;13.52;100.00
11349;BME280;5729;43.570;27.826;2023-04-15T04:02:30;98476.53;;;13.65;100.00
11349;BME280;5729;43.570;27.826;2023-04-15T04:04:55;98491.59;;;13.73;100.00
11349;BME280;5729;43.570;27.826;2023-04-15T04:07:22;98481.50;;;13.77;100.00
11349;BME280;5729;43.570;27.826;2023-04-15T04:09:48;98478.78;;;13.88;100.00
11349;BME280;5729;43.570;27.826;2023-04-15T04:12:13;98475.66;;;13.93;100.00
11349;BME280;5729;43.570;27.826;2023-04-15T04:14:39;98482.59;;;14.01;100.00
11349;BME280;5729;43.570;27.826;2023-04-15T04:17:04;98477.94;;;14.02;100.00
11349;BME280;5729;43.570;27.826;2023-04-15T04:19:30;98480.97;;;14.18;100.00
11349;BME280;5729;43.570;27.826;2023-04-15T04:21:56;98485.56;;;14.25;100.00
11349;BME280;5729;43.570;27.826;2023-04-15T04:24:21;98484.78;;;14.31;100.00
11349;BME280;5729;43.570;27.826;2023-04-15T04:26:47;98481.25;;;14.34;100.00
11349;BME280;5729;43.570;27.826;2023-04-15T04:29:13;98485.53;;;14.42;100.00
11349;BME280;5729;43.570;27.826;2023-04-15T04:31:38;98492.47;;;14.47;100.00
11349;BME280;5729;43.570;27.826;2023-04-15T04:34:04;98492.84;;;14.45;100.00
11349;BME280;5729;43.570;27.826;2023-04-15T04:36:29;98495.16;;;14.54;100.00
11349;BME280;5729;43.570;27.826;2023-04-15T04:38:54;98492.78;;;14.63;100.00
11349;BME280;5729;43.570;27.826;2023-04-15T04:41:20;98494.25;;;14.71;100.00
11349;BME280;5729;43.570;27.826;2023-04-15T04:43:45;98498.88;;;14.78;100.00
11349;BME280;5729;43.570;27.826;2023-04-15T04:46:11;98495.78;;;14.76;100.00
11349;BME280;5729;43.570;27.826;2023-04-15T04:48:36;98494.97;;;14.82;100.00
11349;BME280;5729;43.570;27.826;2023-04-15T04:51:02;98490.38;;;14.76;100.00
11349;BME280;5729;43.570;27.826;2023-04-15T04:53:28;98499.19;;;14.87;100.00
11349;BME280;5729;43.570;27.826;2023-04-15T04:55:53;98505.81;;;14.82;100.00
11349;BME280;5729;43.570;27.826;2023-04-15T04:58:18;98499.56;;;14.89;100.00
11349;BME280;5729;43.570;27.826;2023-04-15T05:00:44;98500.75;;;14.84;100.00
11349;BME280;5729;43.570;27.826;2023-04-15T05:03:10;98496.09;;;14.88;100.00
11349;BME280;5729;43.570;27.826;2023-04-15T05:05:35;98492.16;;;14.97;100.00
11349;BME280;5729;43.570;27.826;2023-04-15T05:08:04;98486.94;;;15.16;100.00
11349;BME280;5729;43.570;27.826;2023-04-15T05:10:30;98494.91;;;15.38;100.00
11349;BME280;5729;43.570;27.826;2023-04-15T05:12:55;98499.81;;;15.53;100.00
11349;BME280;5729;43.570;27.826;2023-04-15T05:15:21;98496.72;;;15.55;100.00
11349;BME280;5729;43.570;27.826;2023-04-15T05:17:46;98501.31;;;15.58;100.00
11349;BME280;5729;43.570;27.826;2023-04-15T05:20:12;98490.00;;;15.67;100.00
11349;BME280;5729;43.570;27.826;2023-04-15T05:22:37;98496.16;;;15.71;100.00
11349;BME280;5729;43.570;27.826;2023-04-15T05:25:03;98494.56;;;15.77;100.00
11349;BME280;5729;43.570;27.826;2023-04-15T05:27:28;98496.56;;;15.69;100.00
11349;BME280;5729;43.570;27.826;2023-04-15T05:29:54;98505.97;;;15.61;100.00
11349;BME280;5729;43.570;27.826;2023-04-15T05:32:21;98492.84;;;15.49;100.00
11349;BME280;5729;43.570;27.826;2023-04-15T05:34:46;98494.41;;;15.46;100.00
11349;BME280;5729;43.570;27.826;2023-04-15T05:37:12;98492.25;;;15.31;100.00
11349;BME280;5729;43.570;27.826;2023-04-15T05:39:37;98504.69;;;15.24;100.00
11349;BME280;5729;43.570;27.826;2023-04-15T05:42:03;98510.88;;;15.29;100.00
11349;BME280;5729;43.570;27.826;2023-04-15T05:44:30;98510.59;;;15.16;100.00
11349;BME280;5729;43.570;27.826;2023-04-15T05:46:55;98545.19;;;15.05;100.00
11349;BME280;5729;43.570;27.826;2023-04-15T05:49:21;98553.53;;;14.76;100.00
11349;BME280;5729;43.570;27.826;2023-04-15T05:51:47;98547.50;;;14.40;100.00
11349;BME280;5729;43.570;27.826;2023-04-15T05:54:12;98549.50;;;14.18;100.00
11349;BME280;5729;43.570;27.826;2023-04-15T05:56:38;98553.06;;;13.94;100.00
11349;BME280;5729;43.570;27.826;2023-04-15T05:59:03;98552.69;;;13.85;100.00
11349;BME280;5729;43.570;27.826;2023-04-15T06:01:28;98548.06;;;13.71;100.00
11349;BME280;5729;43.570;27.826;2023-04-15T06:03:54;98555.81;;;13.73;100.00
11349;BME280;5729;43.570;27.826;2023-04-15T06:06:20;98560.47;;;13.65;100.00
11349;BME280;5729;43.570;27.826;2023-04-15T06:08:45;98568.97;;;13.67;100.00
11349;BME280;5729;43.570;27.826;2023-04-15T06:11:11;98579.03;;;13.60;100.00
11349;BME280;5729;43.570;27.826;2023-04-15T06:13:36;98592.56;;;13.56;100.00
11349;BME280;5729;43.570;27.826;2023-04-15T06:16:02;98589.09;;;13.59;100.00
11349;BME280;5729;43.570;27.826;2023-04-15T06:18:28;98579.44;;;13.65;100.00
11349;BME280;5729;43.570;27.826;2023-04-15T06:20:53;98585.59;;;13.66;100.00
11349;BME280;5729;43.570;27.826;2023-04-15T06:23:19;98584.06;;;13.58;100.00
11349;BME280;5729;43.570;27.826;2023-04-15T06:25:45;98597.22;;;13.49;100.00
11349;BME280;5729;43.570;27.826;2023-04-15T06:28:10;98596.44;;;13.48;100.00
11349;BME280;5729;43.570;27.826;2023-04-15T06:30:36;98596.06;;;13.50;100.00
11349;BME280;5729;43.570;27.826;2023-04-15T06:33:02;98604.19;;;13.50;100.00
11349;BME280;5729;43.570;27.826;2023-04-15T06:35:29;98601.47;;;13.53;100.00
11349;BME280;5729;43.570;27.826;2023-04-15T06:37:55;98605.34;;;13.63;100.00
11349;BME280;5729;43.570;27.826;2023-04-15T06:40:21;98592.94;;;13.79;100.00
11349;BME280;5729;43.570;27.826;2023-04-15T06:42:46;98597.91;;;14.02;100.00
11349;BME280;5729;43.570;27.826;2023-04-15T06:45:12;98598.66;;;14.17;100.00
11349;BME280;5729;43.570;27.826;2023-04-15T06:47:37;98590.94;;;14.19;100.00
11349;BME280;5729;43.570;27.826;2023-04-15T06:50:03;98586.97;;;14.34;100.00
11349;BME280;5729;43.570;27.826;2023-04-15T06:52:28;98567.22;;;14.37;100.00
11349;BME280;5729;43.570;27.826;2023-04-15T06:54:54;98580.78;;;14.37;100.00
11349;BME280;5729;43.570;27.826;2023-04-15T06:57:19;98582.03;;;14.15;100.00
11349;BME280;5729;43.570;27.826;2023-04-15T06:59:45;98585.88;;;14.14;100.00
11349;BME280;5729;43.570;27.826;2023-04-15T07:02:12;98588.59;;;14.17;100.00
11349;BME280;5729;43.570;27.826;2023-04-15T07:04:38;98588.19;;;14.33;100.00
11349;BME280;5729;43.570;27.826;2023-04-15T07:07:04;98572.63;;;14.51;100.00
11349;BME280;5729;43.570;27.826;2023-04-15T07:09:30;98572.06;;;14.85;100.00
11349;BME280;5729;43.570;27.826;2023-04-15T07:11:56;98572.56;;;15.24;100.00
11349;BME280;5729;43.570;27.826;2023-04-15T07:14:22;98570.38;;;15.60;100.00
11349;BME280;5729;43.570;27.826;2023-04-15T07:16:47;98572.09;;;15.85;100.00
11349;BME280;5729;43.570;27.826;2023-04-15T07:19:13;98578.94;;;16.00;100.00
11349;BME280;5729;43.570;27.826;2023-04-15T07:21:38;98590.59;;;15.97;100.00
11349;BME280;5729;43.570;27.826;2023-04-15T07:24:04;98581.69;;;15.55;100.00
11349;BME280;5729;43.570;27.826;2023-04-15T07:26:29;98599.25;;;15.85;100.00
11349;BME280;5729;43.570;27.826;2023-04-15T07:28:55;98601.50;;;15.93;100.00
11349;BME280;5729;43.570;27.826;2023-04-15T07:31:21;98603.00;;;16.02;100.00
11349;BME280;5729;43.570;27.826;2023-04-15T07:33:46;98603.03;;;15.94;100.00
11349;BME280;5729;43.570;27.826;2023-04-15T07:36:11;98607.06;;;16.20;100.00
11349;BME280;5729;43.570;27.826;2023-04-15T07:38:38;98600.50;;;16.14;100.00
11349;BME280;5729;43.570;27.826;2023-04-15T07:41:03;98601.72;;;16.10;100.00
11349;BME280;5729;43.570;27.826;2023-04-15T07:43:29;98612.25;;;16.08;100.00
11349;BME280;5729;43.570;27.826;2023-04-15T07:45:54;98614.66;;;15.98;100.00
11349;BME280;5729;43.570;27.826;2023-04-15T07:48:20;98619.31;;;15.53;100.00
11349;BME280;5729;43.570;27.826;2023-04-15T07:50:45;98615.88;;;15.46;100.00
11349;BME280;5729;43.570;27.826;2023-04-15T07:53:11;98614.25;;;15.52;100.00
11349;BME280;5729;43.570;27.826;2023-04-15T07:55:36;98616.00;;;15.24;100.00
11349;BME280;5729;43.570;27.826;2023-04-15T07:58:02;98613.59;;;15.37;100.00
11349;BME280;5729;43.570;27.826;2023-04-15T08:00:27;98612.72;;;15.51;100.00
11349;BME280;5729;43.570;27.826;2023-04-15T08:02:53;98618.50;;;15.60;100.00
11349;BME280;5729;43.570;27.826;2023-04-15T08:05:21;98621.41;;;15.83;100.00
11349;BME280;5729;43.570;27.826;2023-04-15T08:07:46;98611.50;;;16.04;100.00
11349;BME280;5729;43.570;27.826;2023-04-15T08:10:13;98610.94;;;16.19;100.00
11349;BME280;5729;43.570;27.826;2023-04-15T08:12:38;98608.00;;;16.41;100.00
11349;BME280;5729;43.570;27.826;2023-04-15T08:15:04;98622.19;;;16.59;100.00
11349;BME280;5729;43.570;27.826;2023-04-15T08:17:30;98625.25;;;15.89;100.00
11349;BME280;5729;43.570;27.826;2023-04-15T08:19:55;98631.22;;;15.70;100.00
11349;BME280;5729;43.570;27.826;2023-04-15T08:22:21;98626.69;;;15.56;100.00
11349;BME280;5729;43.570;27.826;2023-04-15T08:24:47;98628.31;;;15.43;100.00
11349;BME280;5729;43.570;27.826;2023-04-15T08:27:12;98629.03;;;15.47;100.00
11349;BME280;5729;43.570;27.826;2023-04-15T08:29:38;98627.75;;;15.66;100.00
11349;BME280;5729;43.570;27.826;2023-04-15T08:32:03;98635.06;;;15.73;100.00
11349;BME280;5729;43.570;27.826;2023-04-15T08:34:29;98624.41;;;15.92;100.00
11349;BME280;5729;43.570;27.826;2023-04-15T08:36:55;98627.00;;;16.07;100.00
11349;BME280;5729;43.570;27.826;2023-04-15T08:39:20;98627.31;;;16.50;100.00
11349;BME280;5729;43.570;27.826;2023-04-15T08:41:55;98624.31;;;16.41;100.00
11349;BME280;5729;43.570;27.826;2023-04-15T08:44:25;98613.69;;;16.53;100.00
11349;BME280;5729;43.570;27.826;2023-04-15T08:46:53;98617.91;;;16.92;100.00
11349;BME280;5729;43.570;27.826;2023-04-15T08:49:23;98619.69;;;17.29;100.00
11349;BME280;5729;43.570;27.826;2023-04-15T08:51:50;98618.53;;;17.53;100.00
11349;BME280;5729;43.570;27.826;2023-04-15T08:54:15;98617.06;;;17.72;100.00
11349;BME280;5729;43.570;27.826;2023-04-15T08:56:41;98625.91;;;17.29;100.00
11349;BME280;5729;43.570;27.826;2023-04-15T08:59:06;98612.63;;;17.04;100.00
11349;BME280;5729;43.570;27.826;2023-04-15T09:01:33;98627.63;;;16.89;100.00
11349;BME280;5729;43.570;27.826;2023-04-15T09:03:58;98625.78;;;16.83;100.00
11349;BME280;5729;43.570;27.826;2023-04-15T09:06:25;98627.16;;;16.67;100.00
11349;BME280;5729;43.570;27.826;2023-04-15T09:08:51;98615.09;;;16.95;100.00
11349;BME280;5729;43.570;27.826;2023-04-15T09:11:17;98630.84;;;17.11;100.00
11349;BME280;5729;43.570;27.826;2023-04-15T09:13:44;98633.69;;;17.54;100.00
11349;BME280;5729;43.570;27.826;2023-04-15T09:16:10;98633.25;;;18.06;100.00
11349;BME280;5729;43.570;27.826;2023-04-15T09:18:37;98632.56;;;17.78;100.00
11349;BME280;5729;43.570;27.826;2023-04-15T09:21:10;98642.59;;;17.31;100.00
11349;BME280;5729;43.570;27.826;2023-04-15T09:23:38;98646.38;;;16.84;100.00
11349;BME280;5729;43.570;27.826;2023-04-15T09:26:04;98638.50;;;16.93;100.00
11349;BME280;5729;43.570;27.826;2023-04-15T09:28:30;98650.13;;;16.93;100.00
11349;BME280;5729;43.570;27.826;2023-04-15T09:31:00;98637.75;;;17.16;100.00
11349;BME280;5729;43.570;27.826;2023-04-15T09:33:27;98646.03;;;17.62;100.00
11349;BME280;5729;43.570;27.826;2023-04-15T09:36:04;98643.63;;;18.14;100.00
11349;BME280;5729;43.570;27.826;2023-04-15T09:38:30;98634.56;;;18.80;100.00
11349;BME280;5729;43.570;27.826;2023-04-15T09:40:57;98636.31;;;18.91;100.00
11349;BME280;5729;43.570;27.826;2023-04-15T09:43:35;98651.25;;;18.66;100.00
11349;BME280;5729;43.570;27.826;2023-04-15T09:46:02;98655.41;;;18.91;100.00
11349;BME280;5729;43.570;27.826;2023-04-15T09:48:27;98647.72;;;19.21;100.00
11349;BME280;5729;43.570;27.826;2023-04-15T09:50:58;98656.34;;;19.56;100.00
11349;BME280;5729;43.570;27.826;2023-04-15T09:53:25;98649.66;;;19.41;100.00
11349;BME280;5729;43.570;27.826;2023-04-15T09:55:56;98652.16;;;19.51;100.00
11349;BME280;5729;43.570;27.826;2023-04-15T09:58:27;98650.47;;;19.74;100.00
11349;BME280;5729;43.570;27.826;2023-04-15T10:00:55;98648.34;;;20.10;100.00
11349;BME280;5729;43.570;27.826;2023-04-15T10:03:27;98648.59;;;20.61;96.38
11349;BME280;5729;43.570;27.826;2023-04-15T10:05:55;98642.31;;;20.31;95.58
11349;BME280;5729;43.570;27.826;2023-04-15T10:08:27;98643.59;;;20.43;96.01
11349;BME280;5729;43.570;27.826;2023-04-15T10:10:54;98654.31;;;20.21;91.15
11349;BME280;5729;43.570;27.826;2023-04-15T10:13:24;98655.47;;;20.08;90.96
11349;BME280;5729;43.570;27.826;2023-04-15T10:18:19;98647.69;;;19.90;98.78
11349;BME280;5729;43.570;27.826;2023-04-15T10:20:47;98656.16;;;19.96;95.72
11349;BME280;5729;43.570;27.826;2023-04-15T10:23:13;98663.34;;;19.73;97.97
11349;BME280;5729;43.570;27.826;2023-04-15T10:25:39;98659.94;;;19.85;96.39
11349;BME280;5729;43.570;27.826;2023-04-15T10:28:06;98638.91;;;20.27;94.10
11349;BME280;5729;43.570;27.826;2023-04-15T10:30:32;98639.44;;;20.80;92.33
11349;BME280;5729;43.570;27.826;2023-04-15T10:33:01;98635.56;;;21.19;90.82
11349;BME280;5729;43.570;27.826;2023-04-15T10:35:29;98634.75;;;21.69;90.70
11349;BME280;5729;43.570;27.826;2023-04-15T10:37:55;98630.78;;;22.52;83.73
11349;BME280;5729;43.570;27.826;2023-04-15T10:40:30;98645.53;;;23.60;72.83
11349;BME280;5729;43.570;27.826;2023-04-15T10:43:02;98645.38;;;22.71;71.95
11349;BME280;5729;43.570;27.826;2023-04-15T10:45:32;98657.00;;;22.31;70.90
11349;BME280;5729;43.570;27.826;2023-04-15T10:48:01;98647.44;;;22.58;68.96
11349;BME280;5729;43.570;27.826;2023-04-15T10:50:29;98644.16;;;21.81;76.80
11349;BME280;5729;43.570;27.826;2023-04-15T10:52:55;98646.63;;;21.54;80.65
11349;BME280;5729;43.570;27.826;2023-04-15T10:55:23;98646.88;;;21.94;80.43
11349;BME280;5729;43.570;27.826;2023-04-15T10:57:58;98651.03;;;22.89;68.98
11349;BME280;5729;43.570;27.826;2023-04-15T11:00:28;98657.72;;;23.10;66.84
11349;BME280;5729;43.570;27.826;2023-04-15T11:02:56;98649.34;;;23.13;65.02
11349;BME280;5729;43.570;27.826;2023-04-15T11:08:11;98643.72;;;26.02;51.58
11349;BME280;5729;43.570;27.826;2023-04-15T11:13:25;98645.91;;;27.54;42.33
11349;BME280;5729;43.570;27.826;2023-04-15T11:15:54;98642.38;;;26.89;47.31
11349;BME280;5729;43.570;27.826;2023-04-15T11:18:24;98652.63;;;27.82;42.61
11349;BME280;5729;43.570;27.826;2023-04-15T11:20:52;98643.69;;;27.93;41.34
11349;BME280;5729;43.570;27.826;2023-04-15T11:23:38;98648.84;;;28.41;40.45
11349;BME280;5729;43.570;27.826;2023-04-15T11:26:06;98633.28;;;28.75;37.33
11349;BME280;5729;43.570;27.826;2023-04-15T11:28:35;98645.56;;;30.05;36.01
11349;BME280;5729;43.570;27.826;2023-04-15T11:31:12;98640.44;;;29.92;33.76
11349;BME280;5729;43.570;27.826;2023-04-15T11:33:59;98645.00;;;28.84;32.30
11349;BME280;5729;43.570;27.826;2023-04-15T11:36:25;98638.09;;;27.88;34.23
11349;BME280;5729;43.570;27.826;2023-04-15T11:38:54;98633.88;;;28.33;35.17
11349;BME280;5729;43.570;27.826;2023-04-15T11:41:21;98640.25;;;28.39;34.67
11349;BME280;5729;43.570;27.826;2023-04-15T11:43:47;98647.00;;;27.42;37.43
11349;BME280;5729;43.570;27.826;2023-04-15T11:46:12;98661.28;;;27.05;37.31
11349;BME280;5729;43.570;27.826;2023-04-15T11:48:43;98646.94;;;27.22;38.56
11349;BME280;5729;43.570;27.826;2023-04-15T11:51:09;98637.06;;;27.65;34.77
11349;BME280;5729;43.570;27.826;2023-04-15T11:53:43;98642.38;;;27.89;35.58
11349;BME280;5729;43.570;27.826;2023-04-15T11:56:22;98656.91;;;28.18;36.35
11349;BME280;5729;43.570;27.826;2023-04-15T11:58:51;98646.41;;;27.03;37.82
11349;BME280;5729;43.570;27.826;2023-04-15T12:01:17;98646.50;;;26.94;40.88
11349;BME280;5729;43.570;27.826;2023-04-15T12:03:46;98647.41;;;26.61;40.93
11349;BME280;5729;43.570;27.826;2023-04-15T12:06:17;98648.59;;;26.99;40.01
11349;BME280;5729;43.570;27.826;2023-04-15T12:11:30;98648.06;;;28.00;38.08
11349;BME280;5729;43.570;27.826;2023-04-15T12:16:43;98633.72;;;28.42;35.54
11349;BME280;5729;43.570;27.826;2023-04-15T12:19:13;98652.25;;;28.56;37.80
11349;BME280;5729;43.570;27.826;2023-04-15T12:21:41;98644.94;;;28.79;36.70
11349;BME280;5729;43.570;27.826;2023-04-15T12:24:10;98642.59;;;28.72;38.55
11349;BME280;5729;43.570;27.826;2023-04-15T12:26:47;98638.84;;;28.75;37.26
11349;BME280;5729;43.570;27.826;2023-04-15T12:29:14;98633.31;;;28.29;38.88
11349;BME280;5729;43.570;27.826;2023-04-15T12:31:56;98641.84;;;27.50;41.50
11349;BME280;5729;43.570;27.826;2023-04-15T12:34:33;98640.16;;;27.72;42.86
11349;BME280;5729;43.570;27.826;2023-04-15T12:37:01;98642.59;;;27.85;39.95
11349;BME280;5729;43.570;27.826;2023-04-15T12:39:29;98644.06;;;28.41;37.49
11349;BME280;5729;43.570;27.826;2023-04-15T12:41:55;98649.34;;;28.45;36.60
11349;BME280;5729;43.570;27.826;2023-04-15T12:44:24;98655.03;;;27.25;37.35
11349;BME280;5729;43.570;27.826;2023-04-15T12:46:50;98649.09;;;26.44;40.38
11349;BME280;5729;43.570;27.826;2023-04-15T12:49:17;98645.03;;;26.84;38.50
11349;BME280;5729;43.570;27.826;2023-04-15T12:51:46;98654.75;;;26.64;39.16
11349;BME280;5729;43.570;27.826;2023-04-15T12:54:12;98644.47;;;27.24;39.60
11349;BME280;5729;43.570;27.826;2023-04-15T12:56:38;98651.63;;;27.65;38.84
11349;BME280;5729;43.570;27.826;2023-04-15T12:59:03;98646.63;;;27.34;37.87
11349;BME280;5729;43.570;27.826;2023-04-15T13:01:29;98648.00;;;27.94;38.71
11349;BME280;5729;43.570;27.826;2023-04-15T13:03:54;98638.56;;;28.47;37.16